Time;durP1;ratioP1;P1;durP2;ratioP2;P2;SDS_P1;SDS_P2;PMS_P1;PMS_P2;Temp;Humidity;BMP_temperature;BMP_pressure;BME280_temperature;BME280_humidity;BME280_pressure;Samples;Min_cycle;Max_cycle;Signal;HPM_P1;HPM_P2
2024/02/27 05:45:04;;;;;;;;;;;;;;;-0.42;93.54;100964.63;107234;1303;22500;-57
2024/02/27 05:47:34;;;;;;;;;;;;;;;-0.44;93.48;100968.48;106894;1307;22569;-53
2024/02/27 05:50:03;;;;;;;;;;;;;;;-0.45;93.64;100973.55;107179;1304;22493;-51
2024/02/27 05:52:31;;;;;;;;;;;;;;;-0.45;93.82;100975.46;107017;1296;22515;-51
2024/02/27 05:54:58;;;;;;;;;;;;;;;-0.42;93.72;100979.70;106961;1309;22480;-52
2024/02/27 05:57:43;;;;;;;;;;;;;;;-0.40;93.85;100978.66;106958;1290;22521;-58
2024/02/27 06:01:03;;;;;;;;;;;;;;;-0.37;93.74;100977.95;107117;1296;22976;-53
2024/02/27 06:03:37;;;;;;;;;;;;;;;-0.34;93.90;100980.66;107003;1299;22938;-53
2024/02/27 06:06:06;;;;;;;;;;;;;;;-0.30;94.11;100987.06;107140;1293;23146;-54
2024/02/27 06:08:33;;;;;;;;;;;;;;;-0.24;94.22;100987.73;107007;1306;22504;-52
2024/02/27 06:11:38;;;;;;;;;;;;;;;-0.17;94.40;100989.79;107021;1306;22539;-59
2024/02/27 06:14:13;;;;;;;;;;;;;;;-0.09;94.25;100989.40;106969;1304;22509;-53
2024/02/27 06:16:57;;;;;;;;;;;;;;;0.00;94.23;100992.29;106758;1306;22485;-54
2024/02/27 06:19:43;;;;;;;;;;;;;;;0.07;94.14;100995.04;106975;1292;22557;-51
2024/02/27 06:44:56;;;;;;;;;;;;;;;0.62;92.12;100996.39;107084;1307;22553;-51
2024/02/27 06:47:50;;;;;;;;;;;;;;;0.70;92.02;100996.98;106967;1310;22729;-50
2024/02/27 06:50:55;;;;;;;;;;;;;;;0.83;92.08;100991.95;106992;1307;23326;-57
2024/02/27 07:04:07;;;;;;;;;;;;;;;1.24;89.94;101003.77;107272;1299;22555;-54
2024/02/27 07:07:24;;;;;;;;;;;;;;;1.30;89.59;100999.77;107004;1309;23262;-52
2024/02/27 07:09:59;;;;;;;;;;;;;;;1.36;88.84;100999.73;106934;1309;22475;-50
2024/02/27 07:22:15;;;;;;;;;;;;;;;1.75;88.36;101005.52;107009;1306;22564;-57
2024/02/27 07:25:21;;;;;;;;;;;;;;;1.86;87.89;101005.34;106671;1306;22513;-55
2024/02/27 07:29:21;;;;;;;;;;;;;;;2.01;87.20;101002.06;106756;1312;23384;-57
2024/02/27 07:32:00;;;;;;;;;;;;;;;2.12;87.48;101006.17;106432;1305;22534;-49
2024/02/27 07:39:55;;;;;;;;;;;;;;;2.49;85.53;101011.11;106749;1306;23078;-50
2024/02/27 07:46:45;;;;;;;;;;;;;;;2.72;83.19;101002.42;107683;1293;22521;-59
2024/02/27 07:49:27;;;;;;;;;;;;;;;2.85;82.93;101009.39;107018;1310;22483;-59
2024/02/27 07:51:58;;;;;;;;;;;;;;;2.99;82.31;101008.78;106915;1309;23020;-55
2024/02/27 07:54:38;;;;;;;;;;;;;;;3.11;81.46;101008.59;107135;1304;22956;-56
2024/02/27 07:57:08;;;;;;;;;;;;;;;3.19;81.58;101011.30;106969;1304;22474;-55
2024/02/27 07:59:41;;;;;;;;;;;;;;;3.25;81.23;101013.61;107053;1304;22492;-50
2024/02/27 08:02:25;;;;;;;;;;;;;;;3.35;80.97;101010.41;107026;1309;22510;-59
2024/02/27 08:05:01;;;;;;;;;;;;;;;3.49;80.57;101015.64;107032;1306;22479;-54
2024/02/27 08:07:33;;;;;;;;;;;;;;;3.62;80.08;101016.65;107062;1304;22457;-49
2024/02/27 08:10:01;;;;;;;;;;;;;;;3.68;79.44;101021.41;107016;1304;22482;-60
2024/02/27 08:17:01;;;;;;;;;;;;;;;3.88;79.33;101019.73;105630;1304;1536671;-57
2024/02/27 08:28:52;;;;;;;;;;;;;;;4.13;77.14;101020.89;106930;1307;22519;-57
2024/02/27 08:32:28;;;;;;;;;;;;;;;4.18;76.76;101019.86;106956;1306;22507;-48
2024/02/27 08:39:50;;;;;;;;;;;;;;;4.25;76.10;101010.08;106923;1311;22514;-50
2024/02/27 08:43:14;;;;;;;;;;;;;;;4.38;76.23;101009.36;107126;1305;22485;-48
2024/02/27 08:46:55;;;;;;;;;;;;;;;4.54;75.82;101007.00;107523;1293;23404;-54
2024/02/27 08:53:32;;;;;;;;;;;;;;;4.86;74.52;100998.95;106834;1313;23332;-56
2024/02/27 08:56:16;;;;;;;;;;;;;;;4.94;73.63;101001.14;106973;1310;22540;-49
2024/02/27 09:04:38;;;;;;;;;;;;;;;5.04;71.52;101000.63;107013;1305;22494;-57
2024/02/27 09:07:15;;;;;;;;;;;;;;;5.10;71.17;100995.45;106921;1312;22555;-57
2024/02/27 09:10:13;;;;;;;;;;;;;;;5.23;70.66;100997.08;107230;1293;23363;-49
2024/02/27 09:13:38;;;;;;;;;;;;;;;5.39;71.17;100992.91;107195;1309;22441;-56
2024/02/27 09:16:08;;;;;;;;;;;;;;;5.59;71.21;100993.05;106976;1306;22456;-53
2024/02/27 09:19:20;;;;;;;;;;;;;;;5.79;69.97;100986.04;106757;1304;22506;-50
2024/02/27 09:22:53;;;;;;;;;;;;;;;5.94;68.93;100983.75;106936;1305;22476;-56
2024/02/27 09:25:56;;;;;;;;;;;;;;;6.12;68.53;100986.20;107111;1304;22655;-48
2024/02/27 09:29:05;;;;;;;;;;;;;;;6.27;67.00;100983.17;106887;1304;22578;-50
2024/02/27 09:35:27;;;;;;;;;;;;;;;6.52;66.46;100980.21;107083;1303;23016;-55
2024/02/27 09:38:18;;;;;;;;;;;;;;;6.68;66.25;100978.91;106933;1304;22582;-53
2024/02/27 09:40:50;;;;;;;;;;;;;;;6.79;65.24;100978.50;106924;1311;22524;-51
2024/02/27 09:43:32;;;;;;;;;;;;;;;6.88;64.35;100976.33;107085;1306;22469;-54
2024/02/27 09:46:29;;;;;;;;;;;;;;;6.94;64.30;100977.50;106979;1306;22506;-49
2024/02/27 09:49:13;;;;;;;;;;;;;;;7.01;64.18;100981.69;106972;1304;22499;-50
2024/02/27 09:52:10;;;;;;;;;;;;;;;7.15;63.29;100975.09;106903;1308;23293;-49
2024/02/27 09:54:38;;;;;;;;;;;;;;;7.20;62.79;100972.96;106921;1304;22501;-56
2024/02/27 09:57:25;;;;;;;;;;;;;;;7.27;62.50;100970.34;106907;1309;22964;-55
2024/02/27 10:01:21;;;;;;;;;;;;;;;7.36;61.45;100967.80;106940;1311;23178;-59
2024/02/27 10:04:42;;;;;;;;;;;;;;;7.37;60.26;100968.85;106797;1303;22517;-57
2024/02/27 10:07:11;;;;;;;;;;;;;;;7.41;59.98;100968.76;106805;1310;22579;-57
2024/02/27 10:10:04;;;;;;;;;;;;;;;7.50;59.29;100966.02;106913;1309;22994;-58
2024/02/27 10:16:55;;;;;;;;;;;;;;;7.63;58.60;100960.08;106855;1304;23945;-57
2024/02/27 10:24:09;;;;;;;;;;;;;;;8.17;58.50;100955.84;107014;1308;22490;-51
2024/02/27 10:27:58;;;;;;;;;;;;;;;8.59;57.38;100950.45;106791;1303;22490;-52
2024/02/27 10:30:45;;;;;;;;;;;;;;;8.92;55.82;100951.88;106978;1310;22488;-52
2024/02/27 10:33:16;;;;;;;;;;;;;;;9.20;55.10;100949.04;106837;1310;22452;-48
2024/02/27 10:35:48;;;;;;;;;;;;;;;9.63;53.77;100947.59;106926;1304;23430;-55
2024/02/27 10:38:27;;;;;;;;;;;;;;;10.03;52.19;100948.65;106869;1306;22548;-46
2024/02/27 10:41:05;;;;;;;;;;;;;;;10.42;50.98;100943.91;106930;1306;22465;-55
2024/02/27 10:43:38;;;;;;;;;;;;;;;10.77;50.29;100938.86;106967;1304;22616;-51
2024/02/27 10:46:06;;;;;;;;;;;;;;;11.15;49.21;100937.78;106990;1310;22448;-51
2024/02/27 10:48:35;;;;;;;;;;;;;;;11.52;48.68;100935.79;107075;1304;22496;-51
2024/02/27 10:51:28;;;;;;;;;;;;;;;11.99;47.36;100935.54;106905;1308;23164;-51
2024/02/27 10:53:58;;;;;;;;;;;;;;;12.35;46.57;100928.67;107027;1310;22502;-50
2024/02/27 10:56:43;;;;;;;;;;;;;;;12.77;45.26;100931.39;106921;1304;22504;-56
2024/02/27 11:03:33;;;;;;;;;;;;;;;13.58;42.31;100934.17;106783;1303;22479;-61
2024/02/27 11:06:12;;;;;;;;;;;;;;;13.68;41.62;100934.84;106649;1304;24219;-65
2024/02/27 11:08:41;;;;;;;;;;;;;;;13.78;41.18;100933.60;107111;1303;23051;-60
2024/02/27 11:16:12;;;;;;;;;;;;;;;14.60;39.76;100928.14;106764;1303;22554;-55
2024/02/27 11:18:45;;;;;;;;;;;;;;;14.76;38.63;100926.80;106703;1311;23318;-56
2024/02/27 11:21:23;;;;;;;;;;;;;;;14.70;38.87;100926.16;106888;1306;22478;-61
2024/02/27 11:24:02;;;;;;;;;;;;;;;14.87;38.80;100929.00;106869;1304;22734;-56
2024/02/27 11:26:29;;;;;;;;;;;;;;;14.98;38.37;100930.16;106928;1311;22464;-55
2024/02/27 11:29:02;;;;;;;;;;;;;;;14.90;38.07;100930.04;106907;1304;23856;-60
2024/02/27 11:32:00;;;;;;;;;;;;;;;14.65;37.71;100927.06;106840;1310;22664;-56
2024/02/27 11:35:19;;;;;;;;;;;;;;;14.26;38.22;100928.31;106829;1310;23171;-55
2024/02/27 11:37:48;;;;;;;;;;;;;;;14.08;38.33;100924.71;106751;1305;22924;-58
2024/02/27 11:40:36;;;;;;;;;;;;;;;13.83;38.90;100920.59;106846;1306;23264;-60
2024/02/27 11:43:04;;;;;;;;;;;;;;;13.55;39.54;100919.64;106928;1306;23615;-54
2024/02/27 11:45:32;;;;;;;;;;;;;;;13.37;40.06;100919.14;107013;1305;22467;-59
2024/02/27 11:48:00;;;;;;;;;;;;;;;13.17;40.09;100918.25;106832;1305;22492;-56
2024/02/27 11:50:36;;;;;;;;;;;;;;;12.99;40.67;100917.39;106895;1307;22575;-59
2024/02/27 11:53:16;;;;;;;;;;;;;;;12.92;40.81;100919.48;106950;1306;22448;-54
2024/02/27 11:55:47;;;;;;;;;;;;;;;12.86;40.96;100916.33;106924;1306;22486;-56
2024/02/27 11:58:16;;;;;;;;;;;;;;;12.81;41.06;100920.19;106974;1306;22598;-55
2024/02/27 12:00:45;;;;;;;;;;;;;;;12.73;41.13;100922.45;106989;1307;23341;-61
2024/02/27 12:04:05;;;;;;;;;;;;;;;12.65;41.65;100922.42;106719;1307;22517;-59
2024/02/27 12:06:36;;;;;;;;;;;;;;;12.65;41.59;100924.54;106741;1304;23318;-61
2024/02/27 12:09:05;;;;;;;;;;;;;;;12.71;41.59;100924.73;106797;1304;22545;-60
2024/02/27 12:12:11;;;;;;;;;;;;;;;12.73;41.44;100924.37;106970;1306;22524;-55
2024/02/27 12:14:41;;;;;;;;;;;;;;;12.76;41.54;100927.17;106782;1304;22492;-56
2024/02/27 12:17:27;;;;;;;;;;;;;;;12.71;41.58;100927.34;106967;1306;22463;-54
2024/02/27 12:24:23;;;;;;;;;;;;;;;12.44;42.09;100933.26;107086;1304;23218;-55
2024/02/27 12:27:36;;;;;;;;;;;;;;;12.24;42.72;100933.19;107045;1303;22500;-53
2024/02/27 12:31:38;;;;;;;;;;;;;;;11.99;43.38;100939.39;107033;1304;22551;-57
2024/02/27 12:34:14;;;;;;;;;;;;;;;11.85;43.38;100946.48;106767;1310;22497;-59
2024/02/27 12:41:30;;;;;;;;;;;;;;;11.47;44.14;100950.60;106813;1305;22486;-56
2024/02/27 12:51:32;;;;;;;;;;;;;;;11.06;44.97;100952.73;106897;1309;23739;-59
2024/02/27 12:54:41;;;;;;;;;;;;;;;10.83;45.59;100951.48;106866;1308;22485;-59
2024/02/27 12:57:09;;;;;;;;;;;;;;;10.60;46.40;100949.69;106641;1315;23258;-55
2024/02/27 12:59:38;;;;;;;;;;;;;;;10.49;46.77;100949.39;106474;1310;22489;-59
2024/02/27 13:02:07;;;;;;;;;;;;;;;10.38;47.04;100950.33;106524;1309;22499;-55
2024/02/27 13:04:35;;;;;;;;;;;;;;;10.34;47.41;100948.72;106357;1310;23252;-59
2024/02/27 13:07:08;;;;;;;;;;;;;;;10.28;47.98;100950.56;106428;1316;22593;-54
2024/02/27 13:09:36;;;;;;;;;;;;;;;10.19;48.48;100951.29;106497;1313;22599;-54
2024/02/27 13:12:04;;;;;;;;;;;;;;;10.18;48.67;100949.01;106446;1309;22480;-55
2024/02/27 13:14:31;;;;;;;;;;;;;;;10.20;48.75;100947.12;106556;1310;22517;-54
2024/02/27 13:16:58;;;;;;;;;;;;;;;10.22;48.91;100946.27;106445;1315;22497;-59
2024/02/27 13:19:25;;;;;;;;;;;;;;;10.23;49.24;100947.70;106476;1316;22506;-59
2024/02/27 13:22:02;;;;;;;;;;;;;;;10.17;49.24;100947.25;106439;1316;22507;-55
2024/02/27 13:24:30;;;;;;;;;;;;;;;10.09;49.64;100946.46;106513;1316;22526;-58
